createdAt,value
2022-10-28T00:02:03.629Z,8.40
2022-10-28T00:04:35.955Z,8.68
2022-10-28T00:07:07.803Z,8.38
2022-10-28T00:09:42.556Z,8.70
2022-10-28T00:12:14.355Z,8.40
2022-10-28T00:14:46.515Z,8.35
2022-10-28T00:17:18.425Z,8.77
2022-10-28T00:19:50.593Z,8.73
2022-10-28T00:22:22.633Z,8.40
2022-10-28T00:24:57.415Z,8.85
2022-10-28T00:27:30.072Z,8.35
2022-10-28T00:30:02.254Z,8.85
2022-10-28T00:32:34.914Z,8.63
2022-10-28T00:35:07.871Z,8.57
2022-10-28T00:37:39.663Z,8.55
2022-10-28T00:40:15.554Z,8.48
2022-10-28T00:42:47.442Z,8.75
2022-10-28T00:45:19.773Z,7.70
2022-10-28T00:47:56.451Z,8.30
2022-10-28T00:50:52.074Z,8.93
2022-10-28T00:53:26.974Z,8.63
2022-10-28T00:56:05.093Z,8.40
2022-10-28T00:58:38.221Z,8.38
2022-10-28T01:04:31.222Z,7.93
2022-10-28T01:07:04.544Z,8.13
2022-10-28T01:09:36.192Z,8.27
2022-10-28T01:12:18.643Z,8.98
2022-10-28T01:15:04.135Z,8.18
2022-10-28T01:17:51.473Z,8.40
2022-10-28T01:20:48.449Z,8.80
2022-10-28T01:23:29.688Z,8.88
2022-10-28T01:26:15.720Z,8.73
2022-10-28T01:29:28.442Z,9.00
2022-10-28T01:32:12.182Z,8.43
2022-10-28T01:34:56.243Z,8.45
2022-10-28T01:37:36.141Z,8.82
2022-10-28T01:40:15.236Z,8.63
2022-10-28T01:42:54.403Z,9.02
2022-10-28T01:45:31.932Z,8.85
2022-10-28T01:48:11.013Z,8.25
2022-10-28T01:50:49.870Z,9.70
2022-10-28T01:53:27.231Z,9.50
2022-10-28T01:56:05.683Z,8.88
2022-10-28T01:58:40.145Z,8.90
2022-10-28T02:01:13.917Z,9.77
2022-10-28T02:03:49.093Z,9.07
2022-10-28T02:06:23.974Z,9.98
2022-10-28T02:09:18.602Z,9.57
2022-10-28T02:12:07.414Z,9.20
2022-10-28T02:14:56.018Z,10.73
2022-10-28T02:17:39.601Z,10.55
2022-10-28T02:20:21.554Z,10.38
2022-10-28T02:22:57.927Z,10.88
2022-10-28T02:25:35.962Z,10.32
2022-10-28T02:31:07.176Z,10.35
2022-10-28T02:33:43.722Z,10.35
2022-10-28T02:36:21.633Z,11.02
2022-10-28T02:38:57.812Z,11.32
2022-10-28T02:41:34.898Z,11.57
2022-10-28T02:44:11.563Z,11.32
2022-10-28T02:46:47.065Z,11.50
2022-10-28T02:49:19.282Z,10.38
2022-10-28T02:51:58.283Z,10.25
2022-10-28T02:54:36.041Z,10.23
2022-10-28T02:57:11.984Z,10.77
2022-10-28T02:59:44.202Z,10.38
2022-10-28T03:02:15.910Z,10.00
2022-10-28T03:04:48.121Z,10.43
2022-10-28T03:07:23.305Z,10.15
2022-10-28T03:09:55.165Z,10.65
2022-10-28T03:12:27.052Z,10.32
2022-10-28T03:14:59.082Z,10.57
2022-10-28T03:17:30.960Z,10.73
2022-10-28T03:20:02.890Z,10.27
2022-10-28T03:22:37.404Z,9.73
2022-10-28T03:25:10.203Z,10.38
2022-10-28T03:27:44.403Z,9.60
2022-10-28T03:30:18.812Z,9.95
2022-10-28T03:32:54.419Z,9.98
2022-10-28T03:35:27.223Z,10.10
2022-10-28T03:38:01.884Z,11.00
2022-10-28T03:40:34.664Z,11.20
2022-10-28T03:43:06.763Z,12.02
2022-10-28T03:45:38.896Z,11.88
2022-10-28T03:48:10.972Z,11.77
2022-10-28T03:50:43.324Z,11.88
2022-10-28T03:53:18.123Z,11.40
2022-10-28T03:55:55.622Z,11.45
2022-10-28T03:58:28.273Z,12.13
2022-10-28T04:01:01.070Z,11.63
2022-10-28T04:03:33.702Z,11.60
2022-10-28T04:06:06.553Z,11.80
2022-10-28T04:08:41.955Z,11.25
2022-10-28T04:11:14.293Z,10.68
2022-10-28T04:13:46.120Z,10.98
2022-10-28T04:16:17.903Z,11.00
2022-10-28T04:18:49.329Z,11.40
2022-10-28T04:21:22.440Z,11.25
2022-10-28T04:23:59.822Z,11.45
2022-10-28T04:26:33.488Z,11.48
2022-10-28T04:29:04.873Z,12.52
2022-10-28T04:31:36.913Z,12.70
2022-10-28T04:34:10.496Z,12.07
2022-10-28T04:36:43.023Z,12.27
2022-10-28T04:39:17.773Z,13.05
2022-10-28T04:41:50.632Z,12.40
2022-10-28T04:44:22.562Z,12.35
2022-10-28T04:46:54.832Z,14.02
2022-10-28T04:49:26.904Z,13.52
2022-10-28T04:51:59.251Z,13.88
2022-10-28T04:54:34.093Z,14.00
2022-10-28T04:57:06.704Z,13.02
2022-10-28T04:59:38.684Z,12.73
2022-10-28T05:02:11.290Z,13.30
2022-10-28T05:04:56.838Z,11.93
2022-10-28T05:07:29.715Z,13.55
2022-10-28T05:10:04.435Z,13.43
2022-10-28T05:12:36.783Z,14.38
2022-10-28T05:15:10.452Z,15.25
2022-10-28T05:17:43.586Z,14.80
2022-10-28T05:20:17.216Z,14.18
2022-10-28T05:22:50.529Z,15.25
2022-10-28T05:25:26.083Z,14.32
2022-10-28T05:28:01.765Z,13.35
2022-10-28T05:30:33.893Z,13.68
2022-10-28T05:33:06.481Z,13.93
2022-10-28T05:35:38.813Z,13.27
2022-10-28T05:38:11.442Z,15.07
2022-10-28T05:40:46.365Z,13.25
2022-10-28T05:43:18.580Z,14.13
2022-10-28T05:45:56.084Z,13.65
2022-10-28T05:48:28.565Z,14.10
2022-10-28T05:51:00.624Z,13.98
2022-10-28T05:53:33.184Z,13.57
2022-10-28T05:56:08.462Z,13.88
2022-10-28T05:58:41.059Z,13.70
2022-10-28T06:01:13.309Z,14.95
2022-10-28T06:03:46.043Z,13.55
2022-10-28T06:06:18.205Z,12.85
2022-10-28T06:08:50.834Z,13.15
2022-10-28T06:11:24.166Z,13.00
2022-10-28T06:13:56.510Z,12.73
2022-10-28T06:16:28.792Z,12.35
2022-10-28T06:19:01.380Z,11.77
2022-10-28T06:21:33.037Z,10.70
2022-10-28T06:24:07.547Z,11.32
2022-10-28T06:26:44.734Z,10.75
2022-10-28T06:29:17.105Z,10.55
2022-10-28T06:31:50.155Z,10.73
2022-10-28T06:34:26.089Z,10.52
2022-10-28T06:37:00.572Z,8.90
2022-10-28T06:39:32.722Z,9.38
2022-10-28T06:42:09.260Z,10.52
2022-10-28T06:44:40.967Z,9.70
2022-10-28T06:47:16.432Z,9.90
2022-10-28T06:49:48.120Z,9.18
2022-10-28T06:52:19.659Z,10.02
2022-10-28T06:54:52.611Z,10.45
2022-10-28T06:57:29.282Z,10.00
2022-10-28T07:00:02.156Z,9.77
2022-10-28T07:02:34.646Z,9.55
2022-10-28T07:05:07.802Z,9.70
2022-10-28T07:07:43.184Z,9.18
2022-10-28T07:10:15.786Z,9.52
2022-10-28T07:12:50.932Z,9.68
2022-10-28T07:15:23.202Z,10.02
2022-10-28T07:17:58.465Z,9.68
2022-10-28T07:20:33.467Z,8.95
2022-10-28T07:23:06.308Z,8.60
2022-10-28T07:25:38.536Z,8.88
2022-10-28T07:28:12.969Z,9.50
2022-10-28T07:30:45.103Z,9.50
2022-10-28T07:33:17.194Z,8.48
2022-10-28T07:35:49.457Z,8.98
2022-10-28T07:38:21.659Z,9.10
2022-10-28T07:40:53.656Z,8.35
2022-10-28T07:43:28.377Z,8.35
2022-10-28T07:46:01.177Z,7.25
2022-10-28T07:48:33.035Z,7.35
2022-10-28T07:51:05.775Z,7.55
2022-10-28T07:53:38.580Z,8.90
2022-10-28T07:56:13.852Z,8.00
2022-10-28T07:58:48.809Z,8.10
2022-10-28T08:01:24.979Z,8.63
2022-10-28T08:03:57.082Z,7.22
2022-10-28T08:06:29.140Z,7.13
2022-10-28T08:09:01.933Z,7.45
2022-10-28T08:11:34.147Z,6.53
2022-10-28T08:14:08.582Z,7.50
2022-10-28T08:16:40.778Z,6.68
2022-10-28T08:19:14.115Z,7.10
2022-10-28T08:21:46.293Z,6.72
2022-10-28T08:24:18.353Z,6.72
2022-10-28T08:26:50.761Z,6.90
2022-10-28T08:29:29.855Z,6.50
2022-10-28T08:32:02.351Z,6.30
2022-10-28T08:34:35.097Z,6.22
2022-10-28T08:37:09.838Z,6.22
2022-10-28T08:39:41.771Z,6.20
2022-10-28T08:42:30.250Z,6.25
2022-10-28T08:45:22.090Z,5.35
2022-10-28T08:48:06.046Z,5.43
2022-10-28T08:50:45.555Z,6.45
2022-10-28T08:53:22.378Z,8.05
2022-10-28T08:55:58.315Z,6.65
2022-10-28T08:58:34.455Z,6.78
2022-10-28T09:01:12.709Z,7.25
2022-10-28T09:03:49.163Z,6.03
2022-10-28T09:06:21.054Z,5.65
2022-10-28T09:08:53.637Z,6.10
2022-10-28T09:11:56.814Z,5.07
2022-10-28T09:14:41.698Z,5.60
2022-10-28T09:17:21.796Z,5.00
2022-10-28T09:19:56.739Z,4.60
2022-10-28T09:22:35.828Z,5.28
2022-10-28T09:25:19.119Z,5.20
2022-10-28T09:28:04.554Z,5.47
2022-10-28T09:30:49.042Z,5.22
2022-10-28T09:33:40.276Z,4.93
2022-10-28T09:36:18.537Z,5.10
2022-10-28T09:38:51.157Z,5.03
2022-10-28T09:44:35.315Z,4.93
2022-10-28T09:47:18.219Z,4.95
2022-10-28T09:49:54.934Z,5.40
2022-10-28T09:52:33.080Z,5.22
2022-10-28T09:55:11.053Z,5.30
2022-10-28T09:57:44.391Z,4.75
2022-10-28T10:00:18.329Z,4.88
2022-10-28T10:02:50.993Z,4.78
2022-10-28T10:05:25.692Z,4.82
2022-10-28T10:08:00.997Z,5.13
2022-10-28T10:10:39.576Z,4.82
2022-10-28T10:13:12.832Z,5.22
2022-10-28T10:15:49.640Z,4.55
2022-10-28T10:18:26.260Z,16.75
2022-10-28T10:21:01.782Z,4.50
2022-10-28T10:23:36.049Z,4.03
2022-10-28T10:26:12.493Z,4.53
2022-10-28T10:28:49.317Z,4.82
2022-10-28T10:31:23.343Z,4.45
2022-10-28T10:33:57.494Z,3.70
2022-10-28T10:36:32.402Z,4.25
2022-10-28T10:39:06.026Z,4.10
2022-10-28T10:41:39.078Z,4.05
2022-10-28T10:44:34.590Z,3.67
2022-10-28T10:47:23.458Z,4.00
2022-10-28T10:49:56.739Z,3.90
2022-10-28T10:52:31.486Z,3.97
2022-10-28T10:55:08.002Z,4.05
2022-10-28T10:57:41.599Z,3.70
2022-10-28T11:00:20.665Z,4.18
2022-10-28T11:02:55.866Z,3.85
2022-10-28T11:05:35.635Z,4.10
2022-10-28T11:08:45.920Z,4.60
2022-10-28T11:11:24.808Z,3.65
2022-10-28T11:14:08.841Z,3.88
2022-10-28T11:16:54.687Z,3.70
2022-10-28T11:19:31.275Z,7.10
2022-10-28T11:22:17.351Z,3.88
2022-10-28T11:25:35.054Z,4.13
2022-10-28T11:28:30.763Z,4.22
2022-10-28T11:31:15.143Z,4.20
2022-10-28T11:33:55.224Z,4.15
2022-10-28T11:36:51.223Z,4.07
2022-10-28T11:39:54.132Z,4.10
2022-10-28T11:43:01.884Z,4.55
2022-10-28T11:46:10.484Z,4.28
2022-10-28T11:49:14.525Z,5.00
2022-10-28T13:01:01.413Z,4.28
2022-10-28T13:03:54.880Z,4.03
2022-10-28T13:06:43.826Z,3.85
2022-10-28T13:09:39.733Z,4.63
2022-10-28T13:12:36.193Z,4.32
2022-10-28T13:15:50.316Z,5.05
2022-10-28T13:18:58.591Z,4.13
2022-10-28T13:21:47.384Z,5.70
2022-10-28T13:24:29.173Z,3.53
2022-10-28T13:27:05.245Z,3.95
2022-10-28T13:29:38.341Z,3.90
2022-10-28T13:32:35.822Z,3.88
2022-10-28T13:35:27.501Z,4.10
2022-10-28T13:38:02.367Z,4.00
2022-10-28T13:41:04.242Z,4.43
2022-10-28T13:44:06.228Z,3.58
2022-10-28T13:47:08.329Z,3.78
2022-10-28T13:49:41.937Z,3.88
2022-10-28T13:52:25.348Z,3.90
2022-10-28T13:55:00.708Z,3.83
2022-10-28T13:57:38.790Z,3.63
2022-10-28T14:00:39.157Z,4.25
2022-10-28T14:03:22.917Z,3.83
2022-10-28T14:05:59.501Z,3.95
2022-10-28T14:08:41.393Z,3.95
2022-10-28T14:11:16.966Z,4.03
2022-10-28T14:13:53.805Z,4.25
2022-10-28T14:16:30.665Z,3.80
2022-10-28T14:19:07.167Z,3.53
2022-10-28T14:22:02.654Z,4.13
2022-10-28T14:24:39.948Z,4.00
2022-10-28T14:27:45.213Z,5.53
2022-10-28T14:30:25.903Z,4.30
2022-10-28T14:33:06.183Z,4.13
2022-10-28T14:35:44.202Z,4.40
2022-10-28T14:38:48.865Z,4.13
2022-10-28T14:41:52.620Z,4.60
2022-10-28T14:44:55.703Z,3.88
2022-10-28T14:47:53.998Z,4.15
2022-10-28T14:50:29.804Z,4.15
2022-10-28T14:53:07.104Z,4.20
2022-10-28T14:55:43.086Z,5.07
2022-10-28T14:58:27.764Z,5.15
2022-10-28T15:01:11.088Z,5.00
2022-10-28T15:03:43.138Z,4.88
2022-10-28T15:06:30.481Z,4.30
2022-10-28T15:09:09.066Z,5.03
2022-10-28T15:11:48.898Z,4.70
2022-10-28T15:14:34.779Z,4.68
2022-10-28T15:17:18.795Z,4.65
2022-10-28T15:19:52.840Z,4.75
2022-10-28T15:22:26.314Z,4.65
2022-10-28T15:25:02.896Z,4.20
2022-10-28T15:27:37.002Z,4.65
2022-10-28T15:30:19.273Z,4.50
2022-10-28T15:32:51.370Z,4.75
2022-10-28T15:35:42.776Z,4.85
2022-10-28T15:38:38.512Z,5.50
2022-10-28T15:41:49.678Z,6.30
2022-10-28T15:44:37.339Z,4.85
2022-10-28T15:47:22.488Z,5.03
2022-10-28T15:50:06.964Z,5.43
2022-10-28T15:52:41.227Z,7.10
2022-10-28T15:55:41.484Z,5.25
2022-10-28T15:58:39.230Z,5.43
2022-10-28T16:01:29.909Z,5.95
2022-10-28T16:04:04.521Z,5.82
2022-10-28T16:06:39.632Z,5.85
2022-10-28T16:09:21.452Z,5.43
2022-10-28T16:11:56.883Z,6.13
2022-10-28T16:14:47.893Z,6.78
2022-10-28T16:17:24.191Z,6.63
2022-10-28T16:20:02.797Z,6.75
2022-10-28T16:22:39.275Z,6.45
2022-10-28T16:25:17.195Z,6.22
2022-10-28T16:27:50.608Z,6.70
2022-10-28T16:33:15.411Z,8.45
2022-10-28T16:35:50.100Z,8.32
2022-10-28T16:38:23.176Z,7.00
2022-10-28T16:40:56.781Z,8.40
2022-10-28T16:43:30.917Z,6.78
2022-10-28T16:46:04.000Z,7.10
2022-10-28T16:48:43.436Z,7.70
2022-10-28T16:51:33.787Z,7.28
2022-10-28T16:54:37.200Z,6.95
2022-10-28T16:57:13.685Z,6.60
2022-10-28T16:59:46.061Z,7.05
2022-10-28T17:02:22.456Z,9.70
2022-10-28T17:04:59.798Z,8.48
2022-10-28T17:07:34.781Z,7.45
2022-10-28T17:10:07.939Z,8.15
2022-10-28T17:12:40.792Z,7.18
2022-10-28T17:15:14.101Z,8.27
2022-10-28T17:17:47.270Z,8.35
2022-10-28T17:20:19.613Z,8.00
2022-10-28T17:22:55.225Z,9.00
2022-10-28T17:25:27.736Z,8.70
2022-10-28T17:28:00.382Z,9.02
2022-10-28T17:30:33.703Z,10.23
2022-10-28T17:33:06.466Z,9.10
2022-10-28T17:35:46.406Z,9.88
2022-10-28T17:38:21.604Z,10.43
2022-10-28T17:40:57.773Z,9.45
2022-10-28T17:43:34.467Z,10.38
2022-10-28T17:46:07.882Z,10.10
2022-10-28T17:48:42.810Z,10.00
2022-10-28T17:51:14.522Z,9.75
2022-10-28T17:53:56.952Z,10.07
2022-10-28T17:56:28.658Z,9.40
2022-10-28T17:59:01.895Z,9.27
2022-10-28T18:01:36.329Z,9.13
2022-10-28T18:04:09.116Z,8.85
2022-10-28T18:06:50.138Z,10.55
2022-10-28T18:09:25.919Z,10.55
2022-10-28T18:12:01.410Z,10.60
2022-10-28T18:14:33.795Z,10.60
2022-10-28T18:17:10.539Z,12.27
2022-10-28T18:19:42.772Z,11.88
2022-10-28T18:22:17.967Z,11.68
2022-10-28T18:24:54.563Z,11.93
2022-10-28T18:27:27.106Z,10.80
2022-10-28T18:29:59.383Z,11.05
2022-10-28T18:32:31.251Z,10.88
2022-10-28T18:35:03.340Z,11.63
2022-10-28T18:37:50.672Z,10.82
2022-10-28T18:41:14.713Z,10.35
2022-10-28T18:43:56.233Z,10.68
2022-10-28T18:46:30.164Z,10.90
2022-10-28T18:49:02.364Z,10.32
2022-10-28T18:51:35.127Z,9.95
2022-10-28T18:54:07.725Z,10.10
2022-10-28T18:56:55.182Z,9.55
2022-10-28T18:59:29.442Z,9.43
2022-10-28T19:02:01.963Z,8.75
2022-10-28T19:04:33.994Z,8.52
2022-10-28T19:07:07.201Z,8.40
2022-10-28T19:09:39.869Z,8.65
2022-10-28T19:12:14.921Z,7.85
2022-10-28T19:14:46.604Z,8.70
2022-10-28T19:17:19.413Z,9.93
2022-10-28T19:19:51.996Z,12.20
2022-10-28T19:22:24.040Z,10.82
2022-10-28T19:24:55.853Z,9.45
2022-10-28T19:27:31.140Z,10.52
2022-10-28T19:30:06.534Z,10.38
2022-10-28T19:32:42.261Z,9.75
2022-10-28T19:35:14.034Z,8.85
2022-10-28T19:37:46.282Z,9.68
2022-10-28T19:40:18.162Z,9.07
2022-10-28T19:42:57.256Z,9.13
2022-10-28T19:45:32.482Z,9.90
2022-10-28T19:48:05.485Z,8.95
2022-10-28T19:50:37.647Z,8.65
2022-10-28T19:53:12.288Z,8.43
2022-10-28T19:55:44.585Z,9.07
2022-10-28T19:58:19.968Z,8.40
2022-10-28T20:00:53.708Z,8.52
2022-10-28T20:03:26.187Z,9.40
2022-10-28T20:06:06.118Z,11.25
2022-10-28T20:08:40.322Z,8.23
2022-10-28T20:11:13.701Z,8.18
2022-10-28T20:13:50.160Z,7.68
2022-10-28T20:16:22.970Z,7.22
2022-10-28T20:18:58.089Z,7.07
2022-10-28T20:21:38.809Z,6.82
2022-10-28T20:24:11.831Z,6.70
2022-10-28T20:26:44.069Z,7.05
2022-10-28T20:29:19.372Z,7.22
2022-10-28T20:31:52.669Z,7.78
2022-10-28T20:34:26.166Z,7.20
2022-10-28T20:36:58.207Z,7.45
2022-10-28T20:39:30.717Z,7.35
2022-10-28T20:42:02.731Z,7.20
2022-10-28T20:44:38.211Z,6.90
2022-10-28T20:47:10.147Z,7.55
2022-10-28T20:49:42.983Z,7.47
2022-10-28T20:52:17.007Z,7.90
2022-10-28T20:54:49.712Z,7.82
2022-10-28T20:57:21.932Z,8.70
2022-10-28T20:59:57.833Z,9.50
2022-10-28T21:02:29.654Z,8.93
2022-10-28T21:05:02.133Z,8.02
2022-10-28T21:07:35.502Z,8.68
2022-10-28T21:10:08.220Z,8.45
2022-10-28T21:12:40.112Z,7.88
2022-10-28T21:15:15.742Z,7.82
2022-10-28T21:17:47.789Z,8.93
2022-10-28T21:20:23.270Z,8.88
2022-10-28T21:22:55.496Z,8.88
2022-10-28T21:25:28.174Z,9.50
2022-10-28T21:28:03.970Z,7.88
2022-10-28T21:30:38.850Z,8.50
2022-10-28T21:33:12.316Z,7.80
2022-10-28T21:35:45.411Z,8.50
2022-10-28T21:38:18.350Z,8.50
2022-10-28T21:40:50.730Z,8.13
2022-10-28T21:43:22.728Z,7.45
2022-10-28T21:45:58.595Z,7.80
2022-10-28T21:48:32.453Z,7.72
2022-10-28T21:51:11.635Z,7.70
2022-10-28T21:54:21.714Z,7.47
2022-10-28T21:56:55.351Z,7.85
2022-10-28T21:59:27.814Z,7.97
2022-10-28T22:02:03.534Z,8.18
2022-10-28T22:04:36.076Z,8.05
2022-10-28T22:07:08.343Z,8.25
2022-10-28T22:09:40.501Z,7.72
2022-10-28T22:12:13.035Z,7.40
2022-10-28T22:14:45.023Z,7.57
2022-10-28T22:17:20.086Z,7.88
2022-10-28T22:19:52.658Z,9.13
2022-10-28T22:22:26.707Z,7.32
2022-10-28T22:24:58.505Z,8.00
2022-10-28T22:27:30.672Z,7.95
2022-10-28T22:30:02.574Z,8.10
2022-10-28T22:32:37.590Z,7.75
2022-10-28T22:35:11.092Z,8.15
2022-10-28T22:37:43.746Z,9.27
2022-10-28T22:40:15.948Z,7.93
2022-10-28T22:42:48.016Z,7.60
2022-10-28T22:45:20.071Z,8.50
2022-10-28T22:47:55.884Z,7.88
2022-10-28T22:50:28.143Z,8.48
2022-10-28T22:53:00.540Z,7.28
2022-10-28T22:55:32.749Z,7.05
2022-10-28T22:58:05.257Z,7.65
2022-10-28T23:00:39.756Z,7.25
2022-10-28T23:03:17.428Z,7.35
2022-10-28T23:05:49.802Z,7.43
2022-10-28T23:08:22.383Z,7.38
2022-10-28T23:10:54.712Z,7.43
2022-10-28T23:13:27.345Z,7.05
2022-10-28T23:15:59.600Z,6.72
2022-10-28T23:18:35.003Z,7.85
2022-10-28T23:21:09.057Z,6.88
2022-10-28T23:23:42.089Z,7.28
2022-10-28T23:26:44.093Z,7.22
2022-10-28T23:29:17.421Z,6.95
2022-10-28T23:31:49.230Z,7.20
2022-10-28T23:34:24.402Z,6.63
2022-10-28T23:36:56.471Z,6.78
2022-10-28T23:39:32.991Z,6.85
2022-10-28T23:42:05.450Z,6.90
2022-10-28T23:44:37.325Z,7.07
2022-10-28T23:47:09.077Z,6.75
2022-10-28T23:49:43.858Z,6.53
2022-10-28T23:52:16.056Z,5.97
2022-10-28T23:54:48.077Z,6.93
2022-10-28T23:57:20.091Z,6.72
2022-10-28T23:59:53.919Z,7.00
